createdAt,value
2023-01-21T00:00:37.539Z,97198.66
2023-01-21T00:03:21.091Z,97205.41
2023-01-21T00:05:59.487Z,97205.69
2023-01-21T00:08:31.862Z,97207.41
2023-01-21T00:11:09.153Z,97209.16
2023-01-21T00:13:49.302Z,97203.22
2023-01-21T00:16:20.963Z,97206.34
2023-01-21T00:18:51.714Z,97209.66
2023-01-21T00:21:21.300Z,97198.06
2023-01-21T00:23:50.814Z,97206.78
2023-01-21T00:26:23.306Z,97203.63
2023-01-21T00:28:52.835Z,97201.13
2023-01-21T00:31:23.378Z,97203.25
2023-01-21T00:33:54.056Z,97204.09
2023-01-21T00:36:29.912Z,97212.91
2023-01-21T00:39:22.527Z,97209.50
2023-01-21T00:41:52.068Z,97213.41
2023-01-21T00:44:32.636Z,97218.19
2023-01-21T00:47:11.353Z,97217.28
2023-01-21T00:49:42.312Z,97222.25
2023-01-21T00:52:14.171Z,97224.75
2023-01-21T00:54:55.569Z,97217.88
2023-01-21T00:57:27.414Z,97219.78
2023-01-21T00:59:56.665Z,97226.38
2023-01-21T01:02:25.697Z,97220.19
2023-01-21T01:04:56.840Z,97222.22
2023-01-21T01:08:04.071Z,97228.31
2023-01-21T01:10:24.527Z,97226.72
2023-01-21T01:12:53.642Z,97238.97
2023-01-21T01:15:34.599Z,97228.25
2023-01-21T01:18:04.198Z,97235.97
2023-01-21T01:20:35.046Z,97227.06
2023-01-21T01:23:05.574Z,97238.00
2023-01-21T01:25:39.164Z,97231.63
2023-01-21T01:28:08.444Z,97234.16
2023-01-21T01:30:37.786Z,97232.72
2023-01-21T01:33:07.797Z,97227.59
2023-01-21T01:35:48.669Z,97229.03
2023-01-21T01:38:22.200Z,97235.53
2023-01-21T01:40:53.413Z,97235.53
2023-01-21T01:43:25.073Z,97237.94
2023-01-21T01:45:55.817Z,97236.22
2023-01-21T01:48:28.485Z,97241.91
2023-01-21T01:51:00.748Z,97236.22
2023-01-21T01:53:32.192Z,97239.69
2023-01-21T01:56:02.027Z,97237.41
2023-01-21T01:58:32.113Z,97234.06
2023-01-21T02:01:01.447Z,97241.81
2023-01-21T02:03:46.279Z,97237.34
2023-01-21T02:06:25.037Z,97246.50
2023-01-21T02:09:04.792Z,97235.91
2023-01-21T02:11:41.663Z,97240.44
2023-01-21T02:14:14.497Z,97242.03
2023-01-21T02:17:01.852Z,97239.19
2023-01-21T02:19:48.791Z,97240.31
2023-01-21T02:22:29.002Z,97250.34
2023-01-21T02:25:28.148Z,97247.50
2023-01-21T02:28:07.893Z,97255.06
2023-01-21T02:30:48.587Z,97259.47
2023-01-21T02:33:46.408Z,97255.78
2023-01-21T02:36:28.838Z,97256.88
2023-01-21T02:39:03.873Z,97257.63
2023-01-21T02:41:45.569Z,97259.94
2023-01-21T02:44:37.469Z,97258.50
2023-01-21T02:47:15.588Z,97266.56
2023-01-21T02:49:48.087Z,97260.84
2023-01-21T02:52:21.271Z,97257.38
2023-01-21T02:54:55.491Z,97254.31
2023-01-21T02:57:40.969Z,97253.50
2023-01-21T03:00:15.120Z,97258.34
2023-01-21T03:03:06.707Z,97255.13
2023-01-21T03:05:50.136Z,97253.84
2023-01-21T03:08:22.494Z,97262.88
2023-01-21T03:10:56.024Z,97258.56
2023-01-21T03:13:49.609Z,97253.72
2023-01-21T03:16:39.733Z,97255.66
2023-01-21T03:19:13.076Z,97253.94
2023-01-21T03:21:44.294Z,97246.16
2023-01-21T03:24:19.768Z,97253.16
2023-01-21T03:26:53.428Z,97243.13
2023-01-21T03:29:28.256Z,97238.50
2023-01-21T03:32:16.565Z,97239.28
2023-01-21T03:35:07.145Z,97230.66
2023-01-21T03:37:43.412Z,97234.53
2023-01-21T03:40:16.573Z,97229.88
2023-01-21T03:42:46.624Z,97230.88
2023-01-21T03:45:18.566Z,97227.16
2023-01-21T03:47:53.925Z,97226.63
2023-01-21T03:50:27.439Z,97228.50
2023-01-21T03:52:58.119Z,97222.47
2023-01-21T03:55:45.399Z,97225.00
2023-01-21T03:58:14.584Z,97219.34
2023-01-21T04:00:43.612Z,97223.13
2023-01-21T04:03:12.483Z,97223.94
2023-01-21T04:05:41.872Z,97217.78
2023-01-21T04:08:25.368Z,97223.03
2023-01-21T04:10:57.472Z,97218.50
2023-01-21T04:13:26.422Z,97206.38
2023-01-21T04:16:10.036Z,97220.06
2023-01-21T04:18:41.734Z,97223.19
2023-01-21T04:21:10.846Z,97226.16
2023-01-21T04:23:41.930Z,97218.59
2023-01-21T04:26:11.623Z,97229.38
2023-01-21T04:28:40.677Z,97226.81
2023-01-21T04:31:09.670Z,97225.25
2023-01-21T04:33:38.900Z,97224.47
2023-01-21T04:36:11.073Z,97231.28
2023-01-21T04:38:41.600Z,97232.66
2023-01-21T04:41:17.981Z,97231.22
2023-01-21T04:43:46.768Z,97234.41
2023-01-21T04:46:16.124Z,97233.06
2023-01-21T04:48:45.367Z,97232.38
2023-01-21T04:51:14.794Z,97238.47
2023-01-21T04:53:46.830Z,97246.94
2023-01-21T04:56:15.791Z,97244.00
2023-01-21T04:58:45.127Z,97243.22
2023-01-21T05:01:14.060Z,97244.59
2023-01-21T05:03:43.329Z,97247.34
2023-01-21T05:06:12.618Z,97249.63
2023-01-21T05:08:43.404Z,97249.81
2023-01-21T05:11:17.651Z,97250.56
2023-01-21T05:13:54.431Z,97251.13
2023-01-21T05:16:29.174Z,97251.91
2023-01-21T05:19:08.827Z,97252.63
2023-01-21T05:21:41.616Z,97252.25
2023-01-21T05:24:11.317Z,97263.28
2023-01-21T05:26:42.133Z,97252.81
2023-01-21T05:29:11.148Z,97263.28
2023-01-21T05:31:40.410Z,97258.41
2023-01-21T05:34:09.443Z,97261.69
2023-01-21T05:36:41.406Z,97258.97
2023-01-21T05:39:10.400Z,97257.31
2023-01-21T05:41:44.324Z,97256.88
2023-01-21T05:44:14.649Z,97255.41
2023-01-21T05:46:45.111Z,97254.69
2023-01-21T05:49:14.113Z,97260.19
2023-01-21T05:52:11.216Z,97259.53
2023-01-21T05:54:52.401Z,97263.94
2023-01-21T05:57:30.808Z,97253.56
2023-01-21T06:00:03.497Z,97252.97
2023-01-21T06:02:54.073Z,97263.53
2023-01-21T06:05:23.471Z,97263.66
2023-01-21T06:07:52.996Z,97264.78
2023-01-21T06:10:22.500Z,97268.44
2023-01-21T06:12:55.180Z,97254.97
2023-01-21T06:15:33.937Z,97264.94
2023-01-21T06:18:05.669Z,97259.91
2023-01-21T06:20:52.276Z,97264.31
2023-01-21T06:23:36.728Z,97272.41
2023-01-21T06:26:12.376Z,97262.66
2023-01-21T06:28:43.516Z,97257.06
2023-01-21T06:31:12.793Z,97258.28
2023-01-21T06:33:42.228Z,97255.66
2023-01-21T06:36:11.938Z,97268.13
2023-01-21T06:38:41.116Z,97264.72
2023-01-21T06:41:13.719Z,97266.50
2023-01-21T06:43:47.832Z,97266.06
2023-01-21T06:46:17.397Z,97271.09
2023-01-21T06:48:46.834Z,97270.91
2023-01-21T06:51:26.231Z,97268.84
2023-01-21T06:53:55.586Z,97259.88
2023-01-21T06:56:44.033Z,97269.13
2023-01-21T06:59:16.406Z,97274.94
2023-01-21T07:02:16.126Z,97273.41
2023-01-21T07:04:50.772Z,97276.25
2023-01-21T07:07:42.480Z,97280.91
2023-01-21T07:10:14.798Z,97285.97
2023-01-21T07:12:44.443Z,97290.03
2023-01-21T07:15:19.934Z,97289.22
2023-01-21T07:17:53.371Z,97291.22
2023-01-21T07:20:23.215Z,97290.41
2023-01-21T07:22:55.605Z,97297.91
2023-01-21T07:25:24.986Z,97291.38
2023-01-21T07:27:57.176Z,97304.50
2023-01-21T07:30:28.517Z,97300.06
2023-01-21T07:33:08.872Z,97294.81
2023-01-21T07:36:02.628Z,97302.09
2023-01-21T07:38:41.962Z,97306.97
2023-01-21T07:41:10.983Z,97300.72
2023-01-21T07:43:40.174Z,97299.53
2023-01-21T07:46:10.931Z,97298.09
2023-01-21T07:48:44.288Z,97310.66
2023-01-21T07:51:16.515Z,97313.25
2023-01-21T07:53:45.860Z,97318.31
2023-01-21T07:56:15.137Z,97321.75
2023-01-21T07:58:45.609Z,97313.41
2023-01-21T08:01:28.797Z,97314.66
2023-01-21T08:04:00.792Z,97321.75
2023-01-21T08:06:30.796Z,97320.72
2023-01-21T08:09:00.309Z,97317.06
2023-01-21T08:11:41.648Z,97316.66
2023-01-21T08:14:11.112Z,97309.78
2023-01-21T08:17:17.079Z,97314.97
2023-01-21T08:19:55.900Z,97323.06
2023-01-21T08:22:31.549Z,97324.66
2023-01-21T08:25:00.444Z,97322.41
2023-01-21T08:27:30.150Z,97326.31
2023-01-21T08:29:59.124Z,97330.84
2023-01-21T08:32:35.282Z,97335.63
2023-01-21T08:35:04.607Z,97329.53
2023-01-21T08:37:33.805Z,97332.28
2023-01-21T08:40:05.972Z,97335.63
2023-01-21T08:42:35.205Z,97330.53
2023-01-21T08:45:05.103Z,97328.31
2023-01-21T08:47:35.725Z,97326.06
2023-01-21T08:50:15.257Z,97325.63
2023-01-21T08:52:55.217Z,97319.81
2023-01-21T08:55:26.883Z,97323.84
2023-01-21T08:57:56.273Z,97323.84
2023-01-21T09:00:34.484Z,97328.31
2023-01-21T09:03:06.116Z,97334.94
2023-01-21T09:05:35.243Z,97336.00
2023-01-21T09:08:05.026Z,97324.97
2023-01-21T09:10:53.006Z,97339.50
2023-01-21T09:13:22.269Z,97340.28
2023-01-21T09:15:51.696Z,97344.41
2023-01-21T09:18:22.418Z,97341.06
2023-01-21T09:20:51.933Z,97341.38
2023-01-21T09:23:46.637Z,97339.69
2023-01-21T09:26:24.312Z,97333.63
2023-01-21T09:29:02.951Z,97342.97
2023-01-21T09:31:32.342Z,97344.94
2023-01-21T09:34:15.674Z,97344.19
2023-01-21T09:36:45.085Z,97331.53
2023-01-21T09:39:14.798Z,97342.06
2023-01-21T09:41:46.160Z,97332.84
2023-01-21T09:44:20.874Z,97327.81
2023-01-21T09:46:56.224Z,97336.66
2023-01-21T09:49:40.367Z,97332.59
2023-01-21T09:52:27.416Z,97332.91
2023-01-21T09:54:58.119Z,97342.41
2023-01-21T09:57:39.913Z,97347.16
2023-01-21T10:00:21.503Z,97344.53
2023-01-21T10:02:55.919Z,97353.25
2023-01-21T10:05:43.967Z,97351.81
2023-01-21T10:08:20.333Z,97341.69
2023-01-21T10:10:53.156Z,97348.47
2023-01-21T10:13:36.348Z,97353.97
2023-01-21T10:16:12.717Z,97342.38
2023-01-21T10:18:44.068Z,97349.84
2023-01-21T10:21:20.692Z,97348.03
2023-01-21T10:24:16.158Z,97347.25
2023-01-21T10:26:49.338Z,97346.06
2023-01-21T10:29:23.972Z,97342.69
2023-01-21T10:31:59.706Z,97338.16
2023-01-21T10:34:33.226Z,97347.53
2023-01-21T10:37:14.499Z,97345.47
2023-01-21T10:39:50.871Z,97340.63
2023-01-21T10:42:51.465Z,97343.84
2023-01-21T10:45:27.828Z,97340.91
2023-01-21T10:48:05.575Z,97330.81
2023-01-21T10:50:42.564Z,97330.81
2023-01-21T10:53:22.521Z,97329.06
2023-01-21T10:56:01.652Z,97334.34
2023-01-21T10:58:36.885Z,97339.25
2023-01-21T11:01:09.819Z,97336.47
2023-01-21T11:03:41.723Z,97340.88
2023-01-21T11:06:12.766Z,97334.91
2023-01-21T11:08:46.836Z,97331.91
2023-01-21T11:11:26.627Z,97331.38
2023-01-21T11:13:56.185Z,97331.53
2023-01-21T11:16:44.592Z,97325.53
2023-01-21T11:19:15.730Z,97328.00
2023-01-21T11:22:04.306Z,97330.97
2023-01-21T11:24:55.082Z,97324.50
2023-01-21T11:27:34.427Z,97322.44
2023-01-21T11:30:49.104Z,97311.47
2023-01-21T11:33:25.893Z,97316.81
2023-01-21T11:35:58.954Z,97316.88
2023-01-21T11:38:34.182Z,97318.72
2023-01-21T11:41:17.939Z,97311.00
2023-01-21T11:43:50.000Z,97309.84
2023-01-21T11:46:33.166Z,97315.53
2023-01-21T11:49:24.419Z,97303.44
2023-01-21T11:52:14.025Z,97307.34
2023-01-21T11:54:53.662Z,97303.44
2023-01-21T11:57:35.167Z,97298.38
2023-01-21T12:00:20.735Z,97301.50
2023-01-21T12:02:55.778Z,97300.53
2023-01-21T12:05:32.453Z,97291.13
2023-01-21T12:08:02.459Z,97295.94
2023-01-21T12:10:35.533Z,97280.22
2023-01-21T12:13:20.322Z,97281.91
2023-01-21T12:16:22.244Z,97290.69
2023-01-21T12:19:16.950Z,97281.75
2023-01-21T12:21:59.590Z,97277.50
2023-01-21T12:24:37.710Z,97285.53
2023-01-21T12:27:17.528Z,97276.97
2023-01-21T12:30:00.069Z,97280.13
2023-01-21T12:32:32.840Z,97278.69
2023-01-21T12:35:12.491Z,97280.50
2023-01-21T12:37:47.115Z,97276.00
2023-01-21T12:40:19.791Z,97282.31
2023-01-21T12:42:53.175Z,97282.81
2023-01-21T12:45:27.410Z,97273.47
2023-01-21T12:47:59.373Z,97278.59
2023-01-21T12:50:32.055Z,97284.72
2023-01-21T12:53:28.181Z,97278.94
2023-01-21T12:56:21.554Z,97280.38
2023-01-21T12:58:56.082Z,97274.84
2023-01-21T13:01:44.140Z,97279.56
2023-01-21T13:04:56.697Z,97276.72
2023-01-21T13:07:31.714Z,97275.81
2023-01-21T13:10:06.295Z,97277.31
2023-01-21T13:12:37.035Z,97272.91
2023-01-21T13:15:15.556Z,97281.09
2023-01-21T13:17:49.453Z,97280.34
2023-01-21T13:20:23.259Z,97279.50
2023-01-21T13:23:08.317Z,97276.72
2023-01-21T13:25:43.761Z,97285.50
2023-01-21T13:28:17.071Z,97290.22
2023-01-21T13:30:49.316Z,97285.31
2023-01-21T13:33:30.212Z,97288.97
2023-01-21T13:36:08.111Z,97290.34
2023-01-21T13:38:47.315Z,97289.06
2023-01-21T13:41:26.080Z,97293.13
2023-01-21T13:44:15.453Z,97295.63
2023-01-21T13:46:55.246Z,97301.63
2023-01-21T13:50:06.405Z,97297.94
2023-01-21T13:52:47.861Z,97306.59
2023-01-21T13:55:27.508Z,97298.63
2023-01-21T13:58:16.470Z,97309.28
2023-01-21T14:00:47.838Z,97314.31
2023-01-21T14:03:25.722Z,97311.53
2023-01-21T14:06:01.169Z,97308.44
2023-01-21T14:08:34.584Z,97309.63
2023-01-21T14:11:06.742Z,97319.63
2023-01-21T14:13:55.802Z,97317.56
2023-01-21T14:16:42.003Z,97320.88
2023-01-21T14:19:38.431Z,97322.91
2023-01-21T14:22:20.225Z,97320.25
2023-01-21T14:25:04.059Z,97316.22
2023-01-21T14:27:40.918Z,97319.06
2023-01-21T14:30:14.876Z,97320.25
2023-01-21T14:32:50.513Z,97324.66
2023-01-21T14:35:24.014Z,97316.28
2023-01-21T14:38:01.000Z,97316.56
2023-01-21T14:40:35.065Z,97317.00
2023-01-21T14:43:04.607Z,97323.97
2023-01-21T14:45:54.031Z,97326.25
2023-01-21T14:48:36.487Z,97324.34
2023-01-21T14:51:16.224Z,97317.97
2023-01-21T14:53:50.905Z,97324.59
2023-01-21T14:56:25.084Z,97329.34
2023-01-21T14:58:56.242Z,97327.88
2023-01-21T15:01:31.879Z,97332.56
2023-01-21T15:04:04.555Z,97327.44
2023-01-21T15:06:38.475Z,97331.31
2023-01-21T15:09:20.546Z,97330.97
2023-01-21T15:11:53.890Z,97335.41
2023-01-21T15:14:24.803Z,97332.56
2023-01-21T15:16:57.054Z,97335.63
2023-01-21T15:19:31.291Z,97339.28
2023-01-21T15:22:19.805Z,97331.66
2023-01-21T15:25:22.530Z,97333.91
2023-01-21T15:28:46.406Z,97334.59
2023-01-21T15:31:45.221Z,97345.38
2023-01-21T15:34:16.346Z,97344.97
2023-01-21T15:36:47.596Z,97342.56
2023-01-21T15:39:18.848Z,97338.09
2023-01-21T15:42:01.462Z,97342.34
2023-01-21T15:44:50.631Z,97342.59
2023-01-21T15:47:41.530Z,97353.00
2023-01-21T15:50:18.389Z,97355.38
2023-01-21T15:53:05.218Z,97357.16
2023-01-21T15:56:01.149Z,97352.88
2023-01-21T15:58:40.077Z,97361.78
2023-01-21T16:01:15.820Z,97366.03
2023-01-21T16:03:50.451Z,97361.16
2023-01-21T16:06:27.124Z,97365.09
2023-01-21T16:09:05.139Z,97367.75
2023-01-21T16:11:49.383Z,97363.06
2023-01-21T16:14:32.009Z,97363.41
2023-01-21T16:17:19.102Z,97363.22
2023-01-21T16:19:50.078Z,97361.78
2023-01-21T16:22:22.327Z,97367.50
2023-01-21T16:24:55.322Z,97365.06
2023-01-21T16:27:26.049Z,97366.63
2023-01-21T16:29:59.759Z,97371.78
2023-01-21T16:32:32.503Z,97365.78
2023-01-21T16:35:02.226Z,97369.16
2023-01-21T16:37:32.912Z,97370.56
2023-01-21T16:40:28.298Z,97373.50
2023-01-21T16:43:12.971Z,97377.19
2023-01-21T16:46:32.813Z,97380.34
2023-01-21T16:49:05.045Z,97381.16
2023-01-21T16:51:35.447Z,97379.34
2023-01-21T16:54:26.598Z,97371.78
2023-01-21T16:57:00.674Z,97374.59
2023-01-21T16:59:31.400Z,97377.56
2023-01-21T17:02:02.008Z,97369.75
2023-01-21T17:04:41.267Z,97376.59
2023-01-21T17:07:15.487Z,97380.69
2023-01-21T17:10:08.726Z,97381.16
2023-01-21T17:12:40.299Z,97382.72
2023-01-21T17:15:19.205Z,97384.81
2023-01-21T17:18:10.667Z,97383.56
2023-01-21T17:20:46.100Z,97391.75
2023-01-21T17:23:18.069Z,97387.34
2023-01-21T17:25:52.745Z,97393.69
2023-01-21T17:28:31.825Z,97398.72
2023-01-21T17:31:23.836Z,97401.50
2023-01-21T17:34:19.860Z,97402.84
2023-01-21T17:36:50.736Z,97410.50
2023-01-21T17:40:01.226Z,97406.88
2023-01-21T17:42:39.368Z,97409.88
2023-01-21T17:45:17.734Z,97417.63
2023-01-21T17:48:12.490Z,97420.66
2023-01-21T17:50:48.572Z,97428.75
2023-01-21T17:53:46.235Z,97418.91
2023-01-21T17:56:16.864Z,97425.59
2023-01-21T17:59:01.432Z,97420.25
2023-01-21T18:01:33.586Z,97429.19
2023-01-21T18:04:02.893Z,97423.47
2023-01-21T18:06:40.589Z,97425.94
2023-01-21T18:09:23.306Z,97428.63
2023-01-21T18:11:53.430Z,97432.91
2023-01-21T18:14:25.491Z,97431.13
2023-01-21T18:16:55.211Z,97436.66
2023-01-21T18:19:31.193Z,97432.56
2023-01-21T18:22:14.391Z,97427.25
2023-01-21T18:25:09.801Z,97437.69
2023-01-21T18:27:39.225Z,97440.25
2023-01-21T18:30:25.689Z,97435.22
2023-01-21T18:33:05.056Z,97435.44
2023-01-21T18:35:34.224Z,97439.91
2023-01-21T18:38:19.503Z,97439.47
2023-01-21T18:40:48.723Z,97435.81
2023-01-21T18:43:18.960Z,97436.56
2023-01-21T18:45:48.661Z,97434.53
2023-01-21T18:48:18.775Z,97446.09
2023-01-21T18:50:55.183Z,97442.28
2023-01-21T18:53:28.115Z,97436.69
2023-01-21T18:55:57.315Z,97439.94
2023-01-21T18:58:26.529Z,97445.63
2023-01-21T19:00:57.856Z,97440.31
2023-01-21T19:03:26.870Z,97439.56
2023-01-21T19:05:55.940Z,97441.94
2023-01-21T19:08:28.736Z,97439.44
2023-01-21T19:10:57.655Z,97437.16
2023-01-21T19:13:26.849Z,97434.50
2023-01-21T19:15:57.813Z,97436.03
2023-01-21T19:18:27.925Z,97439.09
2023-01-21T19:20:57.311Z,97437.25
2023-01-21T19:23:27.818Z,97436.81
2023-01-21T19:25:59.689Z,97434.09
2023-01-21T19:28:29.575Z,97436.09
2023-01-21T19:31:01.955Z,97434.75
2023-01-21T19:33:32.429Z,97434.53
2023-01-21T19:36:04.389Z,97434.13
2023-01-21T19:38:34.807Z,97442.28
2023-01-21T19:41:04.823Z,97442.00
2023-01-21T19:43:46.617Z,97442.03
2023-01-21T19:46:15.968Z,97446.16
2023-01-21T19:48:45.224Z,97444.13
2023-01-21T19:51:14.613Z,97446.97
2023-01-21T19:53:45.576Z,97447.28
2023-01-21T19:56:16.511Z,97451.22
2023-01-21T19:58:49.076Z,97447.38
2023-01-21T20:01:32.880Z,97451.22
2023-01-21T20:04:02.045Z,97449.44
2023-01-21T20:06:42.209Z,97451.75
2023-01-21T20:09:17.833Z,97458.06
2023-01-21T20:11:47.125Z,97456.75
2023-01-21T20:14:16.443Z,97453.09
2023-01-21T20:16:47.583Z,97461.25
2023-01-21T20:19:17.719Z,97456.91
2023-01-21T20:21:59.928Z,97455.16
2023-01-21T20:24:34.358Z,97453.69
2023-01-21T20:27:28.322Z,97451.69
2023-01-21T20:30:14.781Z,97461.47
2023-01-21T20:32:45.056Z,97464.31
2023-01-21T20:35:17.397Z,97453.72
2023-01-21T20:38:00.432Z,97447.66
2023-01-21T20:40:33.211Z,97449.91
2023-01-21T20:43:02.915Z,97445.22
2023-01-21T20:45:45.255Z,97438.81
2023-01-21T20:48:20.361Z,97449.31
2023-01-21T20:50:49.374Z,97439.03
2023-01-21T20:53:21.020Z,97441.41
2023-01-21T20:55:52.241Z,97442.84
2023-01-21T20:58:24.324Z,97438.00
2023-01-21T21:00:53.590Z,97440.03
2023-01-21T21:03:22.936Z,97448.31
2023-01-21T21:06:02.264Z,97442.66
2023-01-21T21:08:31.359Z,97442.47
2023-01-21T21:11:04.609Z,97442.88
2023-01-21T21:13:47.679Z,97429.38
2023-01-21T21:16:21.329Z,97436.28
2023-01-21T21:18:50.647Z,97431.66
2023-01-21T21:21:23.482Z,97431.63
2023-01-21T21:23:55.723Z,97438.66
2023-01-21T21:26:29.514Z,97437.16
2023-01-21T21:28:58.747Z,97435.50
2023-01-21T21:31:40.943Z,97444.00
2023-01-21T21:34:11.334Z,97446.63
2023-01-21T21:36:43.044Z,97449.22
2023-01-21T21:39:19.438Z,97447.63
2023-01-21T21:42:07.426Z,97450.41
2023-01-21T21:44:40.022Z,97452.47
2023-01-21T21:47:28.044Z,97451.72
2023-01-21T21:49:59.408Z,97446.88
2023-01-21T21:52:31.898Z,97457.03
2023-01-21T21:55:03.556Z,97452.53
2023-01-21T21:57:42.166Z,97456.53
2023-01-21T22:00:13.003Z,97453.72
2023-01-21T22:02:42.645Z,97461.34
2023-01-21T22:08:04.354Z,97457.31
2023-01-21T22:10:35.902Z,97457.25
2023-01-21T22:13:07.542Z,97449.50
2023-01-21T22:15:36.955Z,97451.91
2023-01-21T22:18:19.830Z,97447.47
2023-01-21T22:20:52.395Z,97441.09
2023-01-21T22:23:32.107Z,97447.72
2023-01-21T22:26:03.665Z,97440.94
2023-01-21T22:28:34.191Z,97443.50
2023-01-21T22:31:04.831Z,97443.84
2023-01-21T22:33:34.917Z,97444.44
2023-01-21T22:36:08.252Z,97450.03
2023-01-21T22:38:40.537Z,97455.69
2023-01-21T22:41:13.708Z,97447.88
2023-01-21T22:43:45.872Z,97451.13
2023-01-21T22:46:16.340Z,97452.31
2023-01-21T22:48:46.539Z,97460.13
2023-01-21T22:51:17.008Z,97456.56
2023-01-21T22:53:46.374Z,97458.19
2023-01-21T22:56:20.366Z,97452.31
2023-01-21T22:58:52.496Z,97452.84
2023-01-21T23:01:23.352Z,97453.81
2023-01-21T23:03:55.415Z,97452.97
2023-01-21T23:06:27.199Z,97457.63
2023-01-21T23:08:56.517Z,97447.72
2023-01-21T23:11:39.641Z,97448.25
2023-01-21T23:14:12.700Z,97458.44
2023-01-21T23:16:42.631Z,97449.22
2023-01-21T23:19:12.221Z,97451.72
2023-01-21T23:21:41.748Z,97449.06
2023-01-21T23:24:11.143Z,97446.38
2023-01-21T23:26:40.346Z,97443.53
2023-01-21T23:29:09.851Z,97443.53
2023-01-21T23:31:41.187Z,97440.75
2023-01-21T23:34:24.228Z,97445.66
2023-01-21T23:36:53.422Z,97447.03
2023-01-21T23:39:23.033Z,97435.03
2023-01-21T23:41:55.457Z,97436.00
2023-01-21T23:44:25.630Z,97440.03
2023-01-21T23:46:56.906Z,97440.03
2023-01-21T23:49:26.130Z,97438.63
2023-01-21T23:51:55.185Z,97436.97
2023-01-21T23:54:24.139Z,97433.59
2023-01-21T23:56:53.572Z,97435.88
2023-01-21T23:59:31.995Z,97432.22
